sensor_id;sensor_type;location;lat;lon;timestamp;P1;durP1;ratioP1;P2;durP2;ratioP2
38653;SDS011;24413;52.450;20.706;2022-12-18T00:00:54;55.67;;;29.27;;
38653;SDS011;24413;52.450;20.706;2022-12-18T00:03:20;65.88;;;31.17;;
38653;SDS011;24413;52.450;20.706;2022-12-18T00:05:46;48.20;;;27.33;;
38653;SDS011;24413;52.450;20.706;2022-12-18T00:08:15;49.72;;;28.27;;
38653;SDS011;24413;52.450;20.706;2022-12-18T00:10:40;54.05;;;28.75;;
38653;SDS011;24413;52.450;20.706;2022-12-18T00:13:07;55.22;;;28.20;;
38653;SDS011;24413;52.450;20.706;2022-12-18T00:15:36;55.88;;;27.70;;
38653;SDS011;24413;52.450;20.706;2022-12-18T00:18:02;59.03;;;28.27;;
38653;SDS011;24413;52.450;20.706;2022-12-18T00:20:27;48.50;;;25.50;;
38653;SDS011;24413;52.450;20.706;2022-12-18T00:22:53;49.42;;;25.77;;
38653;SDS011;24413;52.450;20.706;2022-12-18T00:25:19;51.03;;;28.27;;
38653;SDS011;24413;52.450;20.706;2022-12-18T00:27:44;53.08;;;27.38;;
38653;SDS011;24413;52.450;20.706;2022-12-18T00:30:10;56.25;;;28.30;;
38653;SDS011;24413;52.450;20.706;2022-12-18T00:32:35;51.70;;;28.13;;
38653;SDS011;24413;52.450;20.706;2022-12-18T00:35:01;47.13;;;27.45;;
38653;SDS011;24413;52.450;20.706;2022-12-18T00:37:26;55.08;;;27.73;;
38653;SDS011;24413;52.450;20.706;2022-12-18T00:39:52;52.10;;;27.65;;
38653;SDS011;24413;52.450;20.706;2022-12-18T00:42:17;53.45;;;28.80;;
38653;SDS011;24413;52.450;20.706;2022-12-18T00:45:01;58.40;;;27.25;;
38653;SDS011;24413;52.450;20.706;2022-12-18T00:47:26;53.33;;;30.45;;
38653;SDS011;24413;52.450;20.706;2022-12-18T00:49:52;52.30;;;27.88;;
38653;SDS011;24413;52.450;20.706;2022-12-18T00:52:17;50.35;;;28.73;;
38653;SDS011;24413;52.450;20.706;2022-12-18T00:54:42;47.53;;;27.55;;
38653;SDS011;24413;52.450;20.706;2022-12-18T00:57:08;59.70;;;30.58;;
38653;SDS011;24413;52.450;20.706;2022-12-18T00:59:33;60.67;;;30.02;;
38653;SDS011;24413;52.450;20.706;2022-12-18T01:01:58;55.35;;;27.63;;
38653;SDS011;24413;52.450;20.706;2022-12-18T01:04:24;59.70;;;28.88;;
38653;SDS011;24413;52.450;20.706;2022-12-18T01:06:49;59.65;;;29.52;;
38653;SDS011;24413;52.450;20.706;2022-12-18T01:09:14;56.45;;;29.20;;
38653;SDS011;24413;52.450;20.706;2022-12-18T01:11:40;60.42;;;31.10;;
38653;SDS011;24413;52.450;20.706;2022-12-18T01:14:05;59.63;;;31.55;;
38653;SDS011;24413;52.450;20.706;2022-12-18T01:16:30;66.15;;;30.42;;
38653;SDS011;24413;52.450;20.706;2022-12-18T01:18:56;66.60;;;31.33;;
38653;SDS011;24413;52.450;20.706;2022-12-18T01:21:21;63.42;;;30.38;;
38653;SDS011;24413;52.450;20.706;2022-12-18T01:23:50;58.35;;;29.73;;
38653;SDS011;24413;52.450;20.706;2022-12-18T01:26:16;62.35;;;29.75;;
38653;SDS011;24413;52.450;20.706;2022-12-18T01:28:42;62.17;;;30.27;;
38653;SDS011;24413;52.450;20.706;2022-12-18T01:31:09;56.67;;;27.58;;
38653;SDS011;24413;52.450;20.706;2022-12-18T01:33:37;53.38;;;28.40;;
38653;SDS011;24413;52.450;20.706;2022-12-18T01:36:03;59.22;;;29.38;;
38653;SDS011;24413;52.450;20.706;2022-12-18T01:38:28;57.85;;;30.55;;
38653;SDS011;24413;52.450;20.706;2022-12-18T01:40:57;56.58;;;29.75;;
38653;SDS011;24413;52.450;20.706;2022-12-18T01:43:40;53.35;;;28.85;;
38653;SDS011;24413;52.450;20.706;2022-12-18T01:46:13;53.78;;;28.50;;
38653;SDS011;24413;52.450;20.706;2022-12-18T01:48:39;60.97;;;31.33;;
38653;SDS011;24413;52.450;20.706;2022-12-18T01:51:06;64.88;;;29.42;;
38653;SDS011;24413;52.450;20.706;2022-12-18T01:53:33;57.85;;;31.48;;
38653;SDS011;24413;52.450;20.706;2022-12-18T01:55:58;60.05;;;31.60;;
38653;SDS011;24413;52.450;20.706;2022-12-18T01:58:27;61.38;;;30.48;;
38653;SDS011;24413;52.450;20.706;2022-12-18T02:00:58;65.70;;;31.65;;
38653;SDS011;24413;52.450;20.706;2022-12-18T02:03:23;60.65;;;30.70;;
38653;SDS011;24413;52.450;20.706;2022-12-18T02:05:52;58.97;;;31.00;;
38653;SDS011;24413;52.450;20.706;2022-12-18T02:11:13;58.45;;;28.20;;
38653;SDS011;24413;52.450;20.706;2022-12-18T02:13:43;53.55;;;26.48;;
38653;SDS011;24413;52.450;20.706;2022-12-18T02:19:01;49.70;;;25.17;;
38653;SDS011;24413;52.450;20.706;2022-12-18T02:27:17;44.33;;;21.42;;
38653;SDS011;24413;52.450;20.706;2022-12-18T02:32:20;51.22;;;20.65;;
38653;SDS011;24413;52.450;20.706;2022-12-18T02:34:49;44.40;;;22.08;;
38653;SDS011;24413;52.450;20.706;2022-12-18T02:37:16;45.38;;;21.77;;
38653;SDS011;24413;52.450;20.706;2022-12-18T02:39:43;40.72;;;21.13;;
38653;SDS011;24413;52.450;20.706;2022-12-18T02:42:10;51.13;;;22.90;;
38653;SDS011;24413;52.450;20.706;2022-12-18T02:44:45;43.85;;;22.27;;
38653;SDS011;24413;52.450;20.706;2022-12-18T02:47:12;40.45;;;21.45;;
38653;SDS011;24413;52.450;20.706;2022-12-18T03:06:02;38.55;;;18.00;;
38653;SDS011;24413;52.450;20.706;2022-12-18T03:08:36;32.10;;;17.73;;
38653;SDS011;24413;52.450;20.706;2022-12-18T03:11:08;33.63;;;17.52;;
38653;SDS011;24413;52.450;20.706;2022-12-18T03:16:11;30.95;;;16.58;;
38653;SDS011;24413;52.450;20.706;2022-12-18T03:18:46;28.90;;;16.42;;
38653;SDS011;24413;52.450;20.706;2022-12-18T03:21:13;33.22;;;18.05;;
38653;SDS011;24413;52.450;20.706;2022-12-18T03:23:43;28.70;;;16.80;;
38653;SDS011;24413;52.450;20.706;2022-12-18T03:26:10;35.88;;;17.48;;
38653;SDS011;24413;52.450;20.706;2022-12-18T03:28:39;40.88;;;18.60;;
38653;SDS011;24413;52.450;20.706;2022-12-18T03:31:08;34.53;;;17.30;;
38653;SDS011;24413;52.450;20.706;2022-12-18T03:33:37;32.55;;;17.17;;
38653;SDS011;24413;52.450;20.706;2022-12-18T03:36:09;31.40;;;15.93;;
38653;SDS011;24413;52.450;20.706;2022-12-18T03:38:34;34.85;;;17.58;;
38653;SDS011;24413;52.450;20.706;2022-12-18T03:43:47;34.53;;;17.65;;
38653;SDS011;24413;52.450;20.706;2022-12-18T03:48:47;34.80;;;18.10;;
38653;SDS011;24413;52.450;20.706;2022-12-18T03:51:38;38.30;;;17.88;;
38653;SDS011;24413;52.450;20.706;2022-12-18T03:54:02;33.88;;;18.60;;
38653;SDS011;24413;52.450;20.706;2022-12-18T03:56:29;37.05;;;19.48;;
38653;SDS011;24413;52.450;20.706;2022-12-18T03:58:59;38.55;;;20.73;;
38653;SDS011;24413;52.450;20.706;2022-12-18T04:01:28;39.17;;;18.45;;
38653;SDS011;24413;52.450;20.706;2022-12-18T04:03:57;37.00;;;18.77;;
38653;SDS011;24413;52.450;20.706;2022-12-18T04:06:24;31.85;;;17.48;;
38653;SDS011;24413;52.450;20.706;2022-12-18T04:08:50;35.92;;;18.02;;
38653;SDS011;24413;52.450;20.706;2022-12-18T04:11:15;38.08;;;19.10;;
38653;SDS011;24413;52.450;20.706;2022-12-18T04:13:41;36.42;;;20.65;;
38653;SDS011;24413;52.450;20.706;2022-12-18T04:16:07;41.58;;;21.00;;
38653;SDS011;24413;52.450;20.706;2022-12-18T04:18:34;37.72;;;20.13;;
38653;SDS011;24413;52.450;20.706;2022-12-18T04:21:00;43.58;;;21.25;;
38653;SDS011;24413;52.450;20.706;2022-12-18T04:23:25;44.08;;;20.50;;
38653;SDS011;24413;52.450;20.706;2022-12-18T04:25:50;43.97;;;21.98;;
38653;SDS011;24413;52.450;20.706;2022-12-18T04:28:16;47.88;;;22.95;;
38653;SDS011;24413;52.450;20.706;2022-12-18T04:30:41;138.25;;;71.15;;
38653;SDS011;24413;52.450;20.706;2022-12-18T04:33:13;99.25;;;56.25;;
38653;SDS011;24413;52.450;20.706;2022-12-18T04:35:39;114.15;;;63.63;;
38653;SDS011;24413;52.450;20.706;2022-12-18T04:38:05;81.45;;;46.67;;
38653;SDS011;24413;52.450;20.706;2022-12-18T04:40:32;56.97;;;29.98;;
38653;SDS011;24413;52.450;20.706;2022-12-18T04:42:57;44.78;;;25.45;;
38653;SDS011;24413;52.450;20.706;2022-12-18T04:45:22;39.67;;;22.70;;
38653;SDS011;24413;52.450;20.706;2022-12-18T04:47:48;48.35;;;23.15;;
38653;SDS011;24413;52.450;20.706;2022-12-18T04:50:13;44.47;;;22.95;;
38653;SDS011;24413;52.450;20.706;2022-12-18T04:52:38;48.95;;;23.80;;
38653;SDS011;24413;52.450;20.706;2022-12-18T04:55:04;50.67;;;24.63;;
38653;SDS011;24413;52.450;20.706;2022-12-18T04:57:29;53.05;;;25.67;;
38653;SDS011;24413;52.450;20.706;2022-12-18T04:59:55;55.83;;;26.65;;
38653;SDS011;24413;52.450;20.706;2022-12-18T05:02:20;64.25;;;29.80;;
38653;SDS011;24413;52.450;20.706;2022-12-18T05:04:45;63.20;;;28.80;;
38653;SDS011;24413;52.450;20.706;2022-12-18T05:07:11;55.33;;;25.88;;
38653;SDS011;24413;52.450;20.706;2022-12-18T05:09:36;49.97;;;24.45;;
38653;SDS011;24413;52.450;20.706;2022-12-18T05:12:01;52.88;;;25.48;;
38653;SDS011;24413;52.450;20.706;2022-12-18T05:14:27;56.85;;;27.70;;
38653;SDS011;24413;52.450;20.706;2022-12-18T05:16:54;55.22;;;27.67;;
38653;SDS011;24413;52.450;20.706;2022-12-18T05:19:19;61.05;;;28.92;;
38653;SDS011;24413;52.450;20.706;2022-12-18T05:21:44;62.78;;;28.27;;
38653;SDS011;24413;52.450;20.706;2022-12-18T05:24:10;61.00;;;28.40;;
38653;SDS011;24413;52.450;20.706;2022-12-18T05:26:35;60.17;;;27.55;;
38653;SDS011;24413;52.450;20.706;2022-12-18T05:29:00;54.25;;;26.50;;
38653;SDS011;24413;52.450;20.706;2022-12-18T05:31:26;58.65;;;28.77;;
38653;SDS011;24413;52.450;20.706;2022-12-18T05:33:51;56.50;;;28.27;;
38653;SDS011;24413;52.450;20.706;2022-12-18T05:36:16;62.47;;;28.58;;
38653;SDS011;24413;52.450;20.706;2022-12-18T05:38:42;55.65;;;27.85;;
38653;SDS011;24413;52.450;20.706;2022-12-18T05:41:07;67.82;;;30.45;;
38653;SDS011;24413;52.450;20.706;2022-12-18T05:43:34;65.78;;;30.50;;
38653;SDS011;24413;52.450;20.706;2022-12-18T05:46:07;67.65;;;31.13;;
38653;SDS011;24413;52.450;20.706;2022-12-18T05:48:35;67.23;;;30.60;;
38653;SDS011;24413;52.450;20.706;2022-12-18T05:51:04;65.07;;;30.45;;
38653;SDS011;24413;52.450;20.706;2022-12-18T05:53:37;68.03;;;31.55;;
38653;SDS011;24413;52.450;20.706;2022-12-18T05:56:03;71.72;;;29.25;;
38653;SDS011;24413;52.450;20.706;2022-12-18T05:58:30;65.50;;;29.55;;
38653;SDS011;24413;52.450;20.706;2022-12-18T06:00:56;57.28;;;28.30;;
38653;SDS011;24413;52.450;20.706;2022-12-18T06:03:21;65.40;;;30.38;;
38653;SDS011;24413;52.450;20.706;2022-12-18T06:05:47;102.63;;;47.97;;
38653;SDS011;24413;52.450;20.706;2022-12-18T06:08:12;69.18;;;34.45;;
38653;SDS011;24413;52.450;20.706;2022-12-18T06:10:38;73.40;;;30.45;;
38653;SDS011;24413;52.450;20.706;2022-12-18T06:13:03;71.63;;;30.05;;
38653;SDS011;24413;52.450;20.706;2022-12-18T06:15:29;68.60;;;29.92;;
38653;SDS011;24413;52.450;20.706;2022-12-18T06:17:55;69.68;;;31.23;;
38653;SDS011;24413;52.450;20.706;2022-12-18T06:20:20;62.05;;;30.90;;
38653;SDS011;24413;52.450;20.706;2022-12-18T06:22:46;66.30;;;31.80;;
38653;SDS011;24413;52.450;20.706;2022-12-18T06:25:11;77.13;;;33.28;;
38653;SDS011;24413;52.450;20.706;2022-12-18T06:27:36;71.55;;;32.47;;
38653;SDS011;24413;52.450;20.706;2022-12-18T06:30:02;68.25;;;32.08;;
38653;SDS011;24413;52.450;20.706;2022-12-18T06:32:28;79.68;;;31.88;;
38653;SDS011;24413;52.450;20.706;2022-12-18T06:34:53;76.38;;;34.15;;
38653;SDS011;24413;52.450;20.706;2022-12-18T06:37:20;98.25;;;37.55;;
38653;SDS011;24413;52.450;20.706;2022-12-18T06:39:45;79.80;;;35.10;;
38653;SDS011;24413;52.450;20.706;2022-12-18T06:42:11;79.38;;;34.35;;
38653;SDS011;24413;52.450;20.706;2022-12-18T06:44:36;73.93;;;31.50;;
38653;SDS011;24413;52.450;20.706;2022-12-18T06:47:01;72.50;;;32.42;;
38653;SDS011;24413;52.450;20.706;2022-12-18T06:49:27;73.82;;;31.88;;
38653;SDS011;24413;52.450;20.706;2022-12-18T06:51:52;75.25;;;32.83;;
38653;SDS011;24413;52.450;20.706;2022-12-18T06:54:18;77.50;;;34.70;;
38653;SDS011;24413;52.450;20.706;2022-12-18T06:56:44;86.28;;;30.27;;
38653;SDS011;24413;52.450;20.706;2022-12-18T06:59:10;72.53;;;32.33;;
38653;SDS011;24413;52.450;20.706;2022-12-18T07:01:35;79.63;;;31.83;;
38653;SDS011;24413;52.450;20.706;2022-12-18T07:04:01;78.38;;;32.13;;
38653;SDS011;24413;52.450;20.706;2022-12-18T07:06:26;82.88;;;34.03;;
38653;SDS011;24413;52.450;20.706;2022-12-18T07:08:52;83.63;;;34.75;;
38653;SDS011;24413;52.450;20.706;2022-12-18T07:11:18;87.15;;;37.78;;
38653;SDS011;24413;52.450;20.706;2022-12-18T07:13:44;78.07;;;31.70;;
38653;SDS011;24413;52.450;20.706;2022-12-18T07:16:14;86.38;;;34.67;;
38653;SDS011;24413;52.450;20.706;2022-12-18T07:18:41;101.07;;;33.97;;
38653;SDS011;24413;52.450;20.706;2022-12-18T07:21:11;104.55;;;34.20;;
38653;SDS011;24413;52.450;20.706;2022-12-18T07:23:38;100.10;;;35.30;;
38653;SDS011;24413;52.450;20.706;2022-12-18T07:26:04;92.38;;;35.58;;
38653;SDS011;24413;52.450;20.706;2022-12-18T07:28:32;90.07;;;36.05;;
38653;SDS011;24413;52.450;20.706;2022-12-18T07:30:58;94.78;;;35.72;;
38653;SDS011;24413;52.450;20.706;2022-12-18T07:33:27;112.20;;;38.20;;
38653;SDS011;24413;52.450;20.706;2022-12-18T07:35:52;192.07;;;79.20;;
38653;SDS011;24413;52.450;20.706;2022-12-18T07:38:17;93.95;;;41.22;;
38653;SDS011;24413;52.450;20.706;2022-12-18T07:40:43;89.07;;;35.08;;
38653;SDS011;24413;52.450;20.706;2022-12-18T07:43:08;102.32;;;38.08;;
38653;SDS011;24413;52.450;20.706;2022-12-18T07:45:33;104.85;;;36.80;;
38653;SDS011;24413;52.450;20.706;2022-12-18T07:47:59;88.57;;;34.80;;
38653;SDS011;24413;52.450;20.706;2022-12-18T07:50:24;88.40;;;35.03;;
38653;SDS011;24413;52.450;20.706;2022-12-18T07:52:50;82.82;;;36.00;;
38653;SDS011;24413;52.450;20.706;2022-12-18T07:55:15;91.50;;;37.00;;
38653;SDS011;24413;52.450;20.706;2022-12-18T07:57:40;88.78;;;38.03;;
38653;SDS011;24413;52.450;20.706;2022-12-18T08:00:06;91.15;;;39.80;;
38653;SDS011;24413;52.450;20.706;2022-12-18T08:02:32;131.88;;;58.65;;
38653;SDS011;24413;52.450;20.706;2022-12-18T08:04:58;84.88;;;40.60;;
38653;SDS011;24413;52.450;20.706;2022-12-18T08:07:23;86.55;;;37.58;;
38653;SDS011;24413;52.450;20.706;2022-12-18T08:09:48;104.65;;;40.55;;
38653;SDS011;24413;52.450;20.706;2022-12-18T08:12:14;161.45;;;60.70;;
38653;SDS011;24413;52.450;20.706;2022-12-18T08:14:39;238.48;;;95.93;;
38653;SDS011;24413;52.450;20.706;2022-12-18T08:17:04;238.50;;;92.28;;
38653;SDS011;24413;52.450;20.706;2022-12-18T08:19:30;180.50;;;75.53;;
38653;SDS011;24413;52.450;20.706;2022-12-18T08:21:55;319.15;;;130.02;;
38653;SDS011;24413;52.450;20.706;2022-12-18T08:24:21;136.95;;;53.75;;
38653;SDS011;24413;52.450;20.706;2022-12-18T08:26:47;97.00;;;39.97;;
38653;SDS011;24413;52.450;20.706;2022-12-18T08:29:12;98.25;;;38.42;;
38653;SDS011;24413;52.450;20.706;2022-12-18T08:31:38;86.63;;;38.15;;
38653;SDS011;24413;52.450;20.706;2022-12-18T08:34:03;101.40;;;42.78;;
38653;SDS011;24413;52.450;20.706;2022-12-18T08:36:28;108.15;;;52.47;;
38653;SDS011;24413;52.450;20.706;2022-12-18T08:38:54;130.80;;;59.75;;
38653;SDS011;24413;52.450;20.706;2022-12-18T08:41:19;103.30;;;43.78;;
38653;SDS011;24413;52.450;20.706;2022-12-18T08:43:45;159.88;;;67.75;;
38653;SDS011;24413;52.450;20.706;2022-12-18T08:46:34;126.22;;;47.80;;
38653;SDS011;24413;52.450;20.706;2022-12-18T08:49:00;114.63;;;49.92;;
38653;SDS011;24413;52.450;20.706;2022-12-18T08:51:26;128.57;;;50.75;;
38653;SDS011;24413;52.450;20.706;2022-12-18T08:53:51;147.80;;;62.55;;
38653;SDS011;24413;52.450;20.706;2022-12-18T08:56:17;152.27;;;67.28;;
38653;SDS011;24413;52.450;20.706;2022-12-18T08:58:42;106.60;;;48.35;;
38653;SDS011;24413;52.450;20.706;2022-12-18T09:01:08;137.02;;;59.72;;
38653;SDS011;24413;52.450;20.706;2022-12-18T09:03:35;152.88;;;59.05;;
38653;SDS011;24413;52.450;20.706;2022-12-18T09:06:01;151.95;;;63.67;;
38653;SDS011;24413;52.450;20.706;2022-12-18T09:08:27;121.93;;;57.15;;
38653;SDS011;24413;52.450;20.706;2022-12-18T09:10:52;105.45;;;47.38;;
38653;SDS011;24413;52.450;20.706;2022-12-18T09:13:18;97.72;;;44.22;;
38653;SDS011;24413;52.450;20.706;2022-12-18T09:15:47;88.60;;;38.85;;
38653;SDS011;24413;52.450;20.706;2022-12-18T09:18:17;137.45;;;63.38;;
38653;SDS011;24413;52.450;20.706;2022-12-18T09:20:44;176.50;;;77.43;;
38653;SDS011;24413;52.450;20.706;2022-12-18T09:23:10;177.30;;;75.20;;
38653;SDS011;24413;52.450;20.706;2022-12-18T09:25:36;135.07;;;53.75;;
38653;SDS011;24413;52.450;20.706;2022-12-18T09:28:03;153.35;;;71.45;;
38653;SDS011;24413;52.450;20.706;2022-12-18T09:30:52;288.58;;;138.57;;
38653;SDS011;24413;52.450;20.706;2022-12-18T09:33:18;150.70;;;67.63;;
38653;SDS011;24413;52.450;20.706;2022-12-18T09:35:43;144.30;;;68.65;;
38653;SDS011;24413;52.450;20.706;2022-12-18T09:38:11;139.90;;;67.65;;
38653;SDS011;24413;52.450;20.706;2022-12-18T09:43:46;136.82;;;67.35;;
38653;SDS011;24413;52.450;20.706;2022-12-18T09:46:48;176.60;;;91.18;;
38653;SDS011;24413;52.450;20.706;2022-12-18T09:49:14;134.68;;;63.40;;
38653;SDS011;24413;52.450;20.706;2022-12-18T09:51:51;113.97;;;55.72;;
38653;SDS011;24413;52.450;20.706;2022-12-18T09:54:24;137.07;;;65.05;;
38653;SDS011;24413;52.450;20.706;2022-12-18T09:56:53;113.40;;;54.08;;
38653;SDS011;24413;52.450;20.706;2022-12-18T09:59:21;117.25;;;52.40;;
38653;SDS011;24413;52.450;20.706;2022-12-18T10:01:49;104.47;;;47.13;;
38653;SDS011;24413;52.450;20.706;2022-12-18T10:04:14;131.55;;;68.40;;
38653;SDS011;24413;52.450;20.706;2022-12-18T10:09:18;141.65;;;63.22;;
38653;SDS011;24413;52.450;20.706;2022-12-18T10:11:55;120.45;;;57.75;;
38653;SDS011;24413;52.450;20.706;2022-12-18T10:19:57;133.30;;;59.97;;
38653;SDS011;24413;52.450;20.706;2022-12-18T10:27:50;130.00;;;59.95;;
38653;SDS011;24413;52.450;20.706;2022-12-18T10:30:18;128.55;;;60.75;;
38653;SDS011;24413;52.450;20.706;2022-12-18T10:32:45;125.22;;;55.60;;
38653;SDS011;24413;52.450;20.706;2022-12-18T10:35:20;183.73;;;71.97;;
38653;SDS011;24413;52.450;20.706;2022-12-18T10:40:31;108.68;;;50.00;;
38653;SDS011;24413;52.450;20.706;2022-12-18T10:43:03;118.60;;;55.03;;
38653;SDS011;24413;52.450;20.706;2022-12-18T10:45:30;116.65;;;53.63;;
38653;SDS011;24413;52.450;20.706;2022-12-18T10:47:55;101.63;;;46.85;;
38653;SDS011;24413;52.450;20.706;2022-12-18T10:50:34;102.68;;;47.35;;
38653;SDS011;24413;52.450;20.706;2022-12-18T10:53:02;162.80;;;84.78;;
38653;SDS011;24413;52.450;20.706;2022-12-18T10:55:38;123.10;;;62.33;;
38653;SDS011;24413;52.450;20.706;2022-12-18T11:01:23;126.13;;;55.17;;
38653;SDS011;24413;52.450;20.706;2022-12-18T11:06:14;441.95;;;182.60;;
38653;SDS011;24413;52.450;20.706;2022-12-18T11:08:41;735.85;;;334.58;;
38653;SDS011;24413;52.450;20.706;2022-12-18T11:11:21;441.67;;;189.55;;
38653;SDS011;24413;52.450;20.706;2022-12-18T11:13:51;144.75;;;59.45;;
38653;SDS011;24413;52.450;20.706;2022-12-18T11:16:20;289.45;;;117.63;;
38653;SDS011;24413;52.450;20.706;2022-12-18T11:18:46;297.23;;;126.25;;
38653;SDS011;24413;52.450;20.706;2022-12-18T11:21:11;436.40;;;228.88;;
38653;SDS011;24413;52.450;20.706;2022-12-18T11:23:44;162.18;;;81.88;;
38653;SDS011;24413;52.450;20.706;2022-12-18T11:26:19;106.30;;;52.58;;
38653;SDS011;24413;52.450;20.706;2022-12-18T11:28:47;113.65;;;52.80;;
38653;SDS011;24413;52.450;20.706;2022-12-18T11:33:41;113.18;;;54.58;;
38653;SDS011;24413;52.450;20.706;2022-12-18T11:36:08;140.18;;;57.28;;
38653;SDS011;24413;52.450;20.706;2022-12-18T11:38:37;135.73;;;58.83;;
38653;SDS011;24413;52.450;20.706;2022-12-18T11:43:44;167.07;;;71.25;;
38653;SDS011;24413;52.450;20.706;2022-12-18T11:46:15;130.77;;;57.92;;
38653;SDS011;24413;52.450;20.706;2022-12-18T11:48:58;110.32;;;52.78;;
38653;SDS011;24413;52.450;20.706;2022-12-18T11:51:31;146.75;;;64.00;;
38653;SDS011;24413;52.450;20.706;2022-12-18T11:54:00;147.70;;;64.82;;
38653;SDS011;24413;52.450;20.706;2022-12-18T11:56:35;96.20;;;47.03;;
38653;SDS011;24413;52.450;20.706;2022-12-18T11:59:16;136.48;;;57.78;;
38653;SDS011;24413;52.450;20.706;2022-12-18T12:07:26;91.70;;;40.80;;
38653;SDS011;24413;52.450;20.706;2022-12-18T12:10:08;198.50;;;86.47;;
38653;SDS011;24413;52.450;20.706;2022-12-18T12:12:58;152.55;;;68.35;;
38653;SDS011;24413;52.450;20.706;2022-12-18T12:18:29;114.75;;;56.45;;
38653;SDS011;24413;52.450;20.706;2022-12-18T12:23:41;109.90;;;49.33;;
38653;SDS011;24413;52.450;20.706;2022-12-18T12:26:18;218.85;;;78.93;;
38653;SDS011;24413;52.450;20.706;2022-12-18T12:28:54;151.55;;;60.05;;
38653;SDS011;24413;52.450;20.706;2022-12-18T12:31:59;112.43;;;54.45;;
38653;SDS011;24413;52.450;20.706;2022-12-18T12:37:30;91.03;;;43.08;;
38653;SDS011;24413;52.450;20.706;2022-12-18T12:40:07;95.47;;;44.30;;
38653;SDS011;24413;52.450;20.706;2022-12-18T12:42:38;111.93;;;48.80;;
38653;SDS011;24413;52.450;20.706;2022-12-18T12:53:48;131.63;;;53.45;;
38653;SDS011;24413;52.450;20.706;2022-12-18T12:56:15;146.05;;;61.00;;
38653;SDS011;24413;52.450;20.706;2022-12-18T13:01:16;161.07;;;68.22;;
38653;SDS011;24413;52.450;20.706;2022-12-18T13:06:19;135.75;;;60.05;;
38653;SDS011;24413;52.450;20.706;2022-12-18T13:14:24;151.07;;;68.57;;
38653;SDS011;24413;52.450;20.706;2022-12-18T13:17:09;201.32;;;88.40;;
38653;SDS011;24413;52.450;20.706;2022-12-18T13:19:49;397.02;;;190.27;;
38653;SDS011;24413;52.450;20.706;2022-12-18T13:22:22;227.48;;;106.97;;
38653;SDS011;24413;52.450;20.706;2022-12-18T13:24:49;117.30;;;56.22;;
38653;SDS011;24413;52.450;20.706;2022-12-18T13:30:33;325.52;;;126.40;;
38653;SDS011;24413;52.450;20.706;2022-12-18T13:43:41;185.30;;;78.53;;
38653;SDS011;24413;52.450;20.706;2022-12-18T13:51:54;243.30;;;109.00;;
38653;SDS011;24413;52.450;20.706;2022-12-18T13:54:36;232.93;;;100.70;;
38653;SDS011;24413;52.450;20.706;2022-12-18T13:57:03;167.98;;;78.25;;
38653;SDS011;24413;52.450;20.706;2022-12-18T13:59:37;216.10;;;88.93;;
38653;SDS011;24413;52.450;20.706;2022-12-18T14:02:16;318.50;;;145.98;;
38653;SDS011;24413;52.450;20.706;2022-12-18T14:04:46;268.60;;;117.35;;
38653;SDS011;24413;52.450;20.706;2022-12-18T14:07:14;244.90;;;104.15;;
38653;SDS011;24413;52.450;20.706;2022-12-18T14:09:42;218.73;;;81.90;;
38653;SDS011;24413;52.450;20.706;2022-12-18T14:12:14;199.20;;;87.13;;
38653;SDS011;24413;52.450;20.706;2022-12-18T14:15:00;223.40;;;99.35;;
38653;SDS011;24413;52.450;20.706;2022-12-18T14:17:25;236.52;;;105.63;;
38653;SDS011;24413;52.450;20.706;2022-12-18T14:19:55;336.95;;;144.88;;
38653;SDS011;24413;52.450;20.706;2022-12-18T14:22:23;195.45;;;83.00;;
38653;SDS011;24413;52.450;20.706;2022-12-18T14:27:38;218.68;;;84.55;;
38653;SDS011;24413;52.450;20.706;2022-12-18T14:32:59;176.77;;;78.97;;
38653;SDS011;24413;52.450;20.706;2022-12-18T14:35:26;214.13;;;80.30;;
38653;SDS011;24413;52.450;20.706;2022-12-18T14:37:51;310.70;;;103.22;;
38653;SDS011;24413;52.450;20.706;2022-12-18T14:40:17;157.70;;;69.25;;
38653;SDS011;24413;52.450;20.706;2022-12-18T14:42:42;186.43;;;84.63;;
38653;SDS011;24413;52.450;20.706;2022-12-18T14:48:06;188.95;;;82.88;;
38653;SDS011;24413;52.450;20.706;2022-12-18T14:50:32;168.95;;;64.25;;
38653;SDS011;24413;52.450;20.706;2022-12-18T14:52:57;166.27;;;70.72;;
38653;SDS011;24413;52.450;20.706;2022-12-18T14:55:22;224.60;;;94.45;;
38653;SDS011;24413;52.450;20.706;2022-12-18T14:57:52;341.58;;;138.98;;
38653;SDS011;24413;52.450;20.706;2022-12-18T15:00:19;297.30;;;108.70;;
38653;SDS011;24413;52.450;20.706;2022-12-18T15:02:47;256.02;;;112.40;;
38653;SDS011;24413;52.450;20.706;2022-12-18T15:05:28;165.57;;;67.93;;
38653;SDS011;24413;52.450;20.706;2022-12-18T15:07:55;194.80;;;75.85;;
38653;SDS011;24413;52.450;20.706;2022-12-18T15:10:24;239.98;;;96.55;;
38653;SDS011;24413;52.450;20.706;2022-12-18T15:17:59;174.52;;;67.18;;
38653;SDS011;24413;52.450;20.706;2022-12-18T15:20:25;245.35;;;58.30;;
38653;SDS011;24413;52.450;20.706;2022-12-18T15:22:50;164.93;;;61.00;;
38653;SDS011;24413;52.450;20.706;2022-12-18T15:25:23;163.93;;;70.13;;
38653;SDS011;24413;52.450;20.706;2022-12-18T15:27:51;163.35;;;65.50;;
38653;SDS011;24413;52.450;20.706;2022-12-18T15:30:19;175.88;;;77.68;;
38653;SDS011;24413;52.450;20.706;2022-12-18T15:32:46;210.68;;;70.72;;
38653;SDS011;24413;52.450;20.706;2022-12-18T15:35:16;172.90;;;64.70;;
38653;SDS011;24413;52.450;20.706;2022-12-18T15:37:46;192.40;;;75.22;;
38653;SDS011;24413;52.450;20.706;2022-12-18T15:40:13;236.82;;;59.05;;
38653;SDS011;24413;52.450;20.706;2022-12-18T15:42:39;246.23;;;64.07;;
38653;SDS011;24413;52.450;20.706;2022-12-18T15:45:23;152.50;;;46.27;;
38653;SDS011;24413;52.450;20.706;2022-12-18T15:47:48;214.55;;;54.33;;
38653;SDS011;24413;52.450;20.706;2022-12-18T15:50:14;206.93;;;77.18;;
38653;SDS011;24413;52.450;20.706;2022-12-18T15:52:40;293.52;;;100.40;;
38653;SDS011;24413;52.450;20.706;2022-12-18T15:55:14;278.52;;;94.97;;
38653;SDS011;24413;52.450;20.706;2022-12-18T15:58:06;318.38;;;127.25;;
38653;SDS011;24413;52.450;20.706;2022-12-18T16:00:32;355.48;;;137.90;;
38653;SDS011;24413;52.450;20.706;2022-12-18T16:02:59;373.00;;;117.30;;
38653;SDS011;24413;52.450;20.706;2022-12-18T16:05:24;361.13;;;144.82;;
38653;SDS011;24413;52.450;20.706;2022-12-18T16:07:51;326.08;;;115.80;;
38653;SDS011;24413;52.450;20.706;2022-12-18T16:10:16;190.10;;;74.05;;
38653;SDS011;24413;52.450;20.706;2022-12-18T16:12:41;153.73;;;57.17;;
38653;SDS011;24413;52.450;20.706;2022-12-18T16:15:07;209.90;;;58.33;;
38653;SDS011;24413;52.450;20.706;2022-12-18T16:17:35;361.95;;;125.97;;
38653;SDS011;24413;52.450;20.706;2022-12-18T16:20:00;324.33;;;108.28;;
38653;SDS011;24413;52.450;20.706;2022-12-18T16:22:27;334.98;;;127.70;;